Terminal Aerodrome Forecast
Issued by NWS Portland, OR

Home | Current Version | Previous Version | Text Only | Print | Product List | Glossary On
Versions: 1 2 3 4 5 6 7 8 9 10 11 12 13 14 15 16 17 18 19 20 21 22 23 24 25 26 27 28 29 30 31 32
000
FTUS46 KPQR 292328
TAFTTD
TAF
KTTD 292328Z 3000/3024 VRB03KT P6SM FEW060
     FM300800 VRB02KT P6SM SCT015 SCT060
     FM301000 VRB02KT P6SM OVC015
     FM302000 24004KT P6SM BKN020 BKN200=

USA.gov is the U.S. government's official web portal to all federal, state and local government web resources and services.